Time;durP1;ratioP1;P1;durP2;ratioP2;P2;SDS_P1;SDS_P2;PMS_P1;PMS_P2;Temp;Humidity;BMP_temperature;BMP_pressure;BME280_temperature;BME280_humidity;BME280_pressure;Samples;Min_cycle;Max_cycle;Signal;HPM_P1;HPM_P2
2022/05/17 00:01:24;;;;;;;;;;;15.00;99.90;;;;;;5049291;28;19925;-72
2022/05/17 00:03:51;;;;;;;;;;;15.00;99.90;;;;;;5056449;28;20372;-72
2022/05/17 00:06:23;;;;;;;;;;;15.00;99.90;;;;;;5075161;28;20164;-72
2022/05/17 00:08:54;;;;;;;;;;;15.00;99.90;;;;;;5060441;28;19929;-72
2022/05/17 00:11:26;;;;;;;;;;;15.00;99.90;;;;;;5053765;28;19928;-72
2022/05/17 00:13:58;;;;;;;;;;;15.00;99.90;;;;;;5059958;28;20435;-72
2022/05/17 00:16:29;;;;;;;;;;;14.90;99.90;;;;;;5061614;28;19947;-72
2022/05/17 00:19:01;;;;;;;;;;;14.90;99.90;;;;;;5060611;28;20019;-72
2022/05/17 00:21:33;;;;;;;;;;;14.80;99.90;;;;;;5066810;28;20024;-72
2022/05/17 00:24:05;;;;;;;;;;;14.80;99.90;;;;;;5051491;28;20436;-72
2022/05/17 00:26:37;;;;;;;;;;;14.70;99.90;;;;;;5061345;28;19935;-72
2022/05/17 00:29:09;;;;;;;;;;;14.70;99.90;;;;;;5056930;28;20309;-72
2022/05/17 00:31:40;;;;;;;;;;;14.70;99.90;;;;;;5061677;28;19925;-72
2022/05/17 00:34:08;;;;;;;;;;;14.60;99.90;;;;;;5058135;28;19929;-72
2022/05/17 00:36:40;;;;;;;;;;;14.60;99.90;;;;;;5058193;28;20415;-72
2022/05/17 00:39:11;;;;;;;;;;;14.70;99.90;;;;;;5065792;28;19929;-72
2022/05/17 00:41:43;;;;;;;;;;;14.70;99.90;;;;;;5060825;28;20391;-72
2022/05/17 00:47:27;;;;;;;;;;;14.70;99.90;;;;;;5058857;28;19924;-72
2022/05/17 00:50:17;;;;;;;;;;;14.80;99.90;;;;;;5067489;28;19932;-72
2022/05/17 00:52:51;;;;;;;;;;;14.80;99.90;;;;;;5064882;28;20187;-72
2022/05/17 00:55:25;;;;;;;;;;;14.70;99.90;;;;;;5059471;28;19924;-72
2022/05/17 00:57:57;;;;;;;;;;;14.70;99.90;;;;;;5061857;28;19932;-72
2022/05/17 01:00:36;;;;;;;;;;;14.60;99.90;;;;;;5057919;28;19947;-72
2022/05/17 01:03:09;;;;;;;;;;;14.50;99.90;;;;;;5064172;28;19929;-72
2022/05/17 01:05:43;;;;;;;;;;;14.50;99.90;;;;;;5057591;28;20393;-72
2022/05/17 01:08:16;;;;;;;;;;;14.50;99.90;;;;;;5073593;28;20346;-72
2022/05/17 01:10:47;;;;;;;;;;;14.50;99.90;;;;;;5058667;28;19929;-72
2022/05/17 01:16:11;;;;;;;;;;;14.30;99.90;;;;;;5065842;28;19925;-72
2022/05/17 01:18:43;;;;;;;;;;;14.30;99.90;;;;;;5057663;28;19924;-72
2022/05/17 01:21:15;;;;;;;;;;;14.20;99.90;;;;;;5062035;28;20131;-72
2022/05/17 01:23:46;;;;;;;;;;;14.10;99.90;;;;;;5061720;28;19928;-72
2022/05/17 01:26:20;;;;;;;;;;;14.10;99.90;;;;;;5065720;28;19928;-72
2022/05/17 01:28:52;;;;;;;;;;;14.10;99.90;;;;;;5066296;28;19935;-72
2022/05/17 01:31:24;;;;;;;;;;;14.10;99.90;;;;;;5066791;28;20404;-72
2022/05/17 01:33:55;;;;;;;;;;;14.10;99.90;;;;;;5056373;28;19931;-73
2022/05/17 01:36:27;;;;;;;;;;;14.10;99.90;;;;;;5055820;28;20011;-72
2022/05/17 01:38:59;;;;;;;;;;;14.10;99.90;;;;;;5058232;28;19928;-72
2022/05/17 01:41:31;;;;;;;;;;;14.10;99.90;;;;;;5054142;28;19925;-72
2022/05/17 01:43:57;;;;;;;;;;;14.10;99.90;;;;;;5052844;28;19978;-72
2022/05/17 01:46:29;;;;;;;;;;;14.10;99.90;;;;;;5076314;28;19925;-72
2022/05/17 01:49:00;;;;;;;;;;;14.10;99.90;;;;;;5062307;28;19932;-72
2022/05/17 01:51:32;;;;;;;;;;;14.10;99.90;;;;;;5061542;28;20367;-72
2022/05/17 01:54:04;;;;;;;;;;;14.10;99.90;;;;;;5064723;28;19931;-72
2022/05/17 01:56:35;;;;;;;;;;;14.10;99.90;;;;;;5063381;28;19932;-72
2022/05/17 01:59:07;;;;;;;;;;;14.10;99.90;;;;;;5058766;28;19947;-72
2022/05/17 02:01:39;;;;;;;;;;;14.10;99.90;;;;;;5058649;28;20313;-72
2022/05/17 02:04:11;;;;;;;;;;;14.10;99.90;;;;;;5066337;28;20027;-72
2022/05/17 02:06:42;;;;;;;;;;;14.10;99.90;;;;;;5066543;28;19924;-72
2022/05/17 02:09:09;;;;;;;;;;;14.20;99.90;;;;;;5063909;28;19929;-72
2022/05/17 02:11:42;;;;;;;;;;;14.30;99.90;;;;;;5070805;28;19932;-72
2022/05/17 02:14:14;;;;;;;;;;;14.20;99.90;;;;;;5063472;28;19935;-72
2022/05/17 02:16:45;;;;;;;;;;;14.10;99.90;;;;;;5063046;28;19931;-72
2022/05/17 02:19:19;;;;;;;;;;;14.10;99.90;;;;;;5058149;28;19932;-72
2022/05/17 02:21:51;;;;;;;;;;;14.10;99.90;;;;;;5068688;28;19925;-72
2022/05/17 02:24:22;;;;;;;;;;;14.10;99.90;;;;;;5059974;28;19931;-72
2022/05/17 02:26:55;;;;;;;;;;;14.10;99.90;;;;;;5067576;28;20405;-72
2022/05/17 02:29:29;;;;;;;;;;;14.10;99.90;;;;;;5061181;28;20375;-72
2022/05/17 02:32:01;;;;;;;;;;;14.10;99.90;;;;;;5064301;28;19929;-72
2022/05/17 02:34:35;;;;;;;;;;;13.90;99.90;;;;;;5057471;28;20403;-72
2022/05/17 02:37:06;;;;;;;;;;;13.80;99.90;;;;;;5064265;28;19931;-72
2022/05/17 02:39:38;;;;;;;;;;;13.80;99.90;;;;;;5069363;28;19931;-72
2022/05/17 02:42:09;;;;;;;;;;;13.80;99.90;;;;;;5064266;28;19935;-72
2022/05/17 02:44:41;;;;;;;;;;;13.80;99.90;;;;;;5066192;28;19928;-72
2022/05/17 02:47:13;;;;;;;;;;;13.70;99.90;;;;;;5059379;28;19968;-72
2022/05/17 02:49:45;;;;;;;;;;;13.60;99.90;;;;;;5060265;28;19928;-72
2022/05/17 02:52:17;;;;;;;;;;;13.60;99.90;;;;;;5055302;28;20290;-72
2022/05/17 02:54:48;;;;;;;;;;;13.50;99.90;;;;;;5077160;28;20312;-72
2022/05/17 02:57:15;;;;;;;;;;;13.50;99.90;;;;;;5062915;28;19932;-72
2022/05/17 02:59:46;;;;;;;;;;;13.40;99.90;;;;;;5062801;28;19925;-72
2022/05/17 03:02:18;;;;;;;;;;;13.40;99.90;;;;;;5056128;28;19929;-72
2022/05/17 03:04:49;;;;;;;;;;;13.40;99.90;;;;;;5057055;28;19931;-72
2022/05/17 03:07:21;;;;;;;;;;;13.40;99.90;;;;;;5066336;28;19928;-72
2022/05/17 03:09:53;;;;;;;;;;;13.40;99.90;;;;;;5058280;28;20016;-72
2022/05/17 03:12:24;;;;;;;;;;;13.30;99.90;;;;;;5064040;28;19928;-72
2022/05/17 03:14:56;;;;;;;;;;;13.30;99.90;;;;;;5056510;28;19944;-72
2022/05/17 03:17:27;;;;;;;;;;;13.30;99.90;;;;;;5064941;28;20389;-72
2022/05/17 03:19:59;;;;;;;;;;;13.20;99.90;;;;;;5058119;28;19924;-72
2022/05/17 03:22:30;;;;;;;;;;;13.30;99.90;;;;;;5058712;28;19924;-72
2022/05/17 03:25:03;;;;;;;;;;;13.30;99.90;;;;;;5062976;28;19931;-72
2022/05/17 03:27:34;;;;;;;;;;;13.20;99.90;;;;;;5062909;28;19929;-72
2022/05/17 03:30:06;;;;;;;;;;;13.20;99.90;;;;;;5064245;28;19932;-72
2022/05/17 03:32:38;;;;;;;;;;;13.20;99.90;;;;;;5058221;28;19936;-72
2022/05/17 03:35:10;;;;;;;;;;;13.20;99.90;;;;;;5062853;28;19924;-72
2022/05/17 03:37:42;;;;;;;;;;;13.10;99.90;;;;;;5060168;28;19928;-72
2022/05/17 03:40:13;;;;;;;;;;;13.10;99.90;;;;;;5062131;28;20336;-72
2022/05/17 03:42:45;;;;;;;;;;;13.00;99.90;;;;;;5066644;28;19933;-72
2022/05/17 03:45:16;;;;;;;;;;;13.10;99.90;;;;;;5055091;28;19928;-72
2022/05/17 03:47:48;;;;;;;;;;;13.00;99.90;;;;;;5060346;28;20511;-72
2022/05/17 03:50:20;;;;;;;;;;;13.10;99.90;;;;;;5067739;28;19931;-72
2022/05/17 03:52:51;;;;;;;;;;;13.00;99.90;;;;;;5056604;28;19932;-72
2022/05/17 03:55:24;;;;;;;;;;;13.00;99.90;;;;;;5058384;28;20304;-72
2022/05/17 03:57:55;;;;;;;;;;;13.00;99.90;;;;;;5060838;28;19933;-72
2022/05/17 04:00:27;;;;;;;;;;;12.90;99.90;;;;;;5067149;28;19924;-72
2022/05/17 04:03:00;;;;;;;;;;;12.90;99.90;;;;;;5062602;28;19928;-72
2022/05/17 04:05:32;;;;;;;;;;;12.90;99.90;;;;;;5095257;28;20578;-73
2022/05/17 04:08:04;;;;;;;;;;;12.90;99.90;;;;;;5066081;28;19924;-73
2022/05/17 04:10:35;;;;;;;;;;;12.90;99.90;;;;;;5055351;28;19932;-72
2022/05/17 04:13:04;;;;;;;;;;;12.90;99.90;;;;;;5056518;28;19924;-75
2022/05/17 04:15:35;;;;;;;;;;;13.00;99.90;;;;;;5054831;28;19924;-73
2022/05/17 04:18:07;;;;;;;;;;;12.90;99.90;;;;;;5057176;28;19925;-72
2022/05/17 04:20:39;;;;;;;;;;;13.00;99.90;;;;;;5068142;28;19930;-72
2022/05/17 04:23:05;;;;;;;;;;;12.90;99.90;;;;;;5063795;28;19928;-72
2022/05/17 04:25:37;;;;;;;;;;;12.90;99.90;;;;;;5061194;28;19931;-72
2022/05/17 04:28:09;;;;;;;;;;;13.00;99.90;;;;;;5063377;28;19932;-72
2022/05/17 04:30:40;;;;;;;;;;;13.00;99.90;;;;;;5071669;28;19936;-72
2022/05/17 04:33:12;;;;;;;;;;;13.00;99.90;;;;;;5057318;28;19996;-72
2022/05/17 04:35:45;;;;;;;;;;;13.00;99.90;;;;;;5057198;28;19971;-72
2022/05/17 04:38:17;;;;;;;;;;;13.00;99.90;;;;;;5068419;28;20289;-72
2022/05/17 04:40:49;;;;;;;;;;;13.00;99.90;;;;;;5069067;28;19928;-72
2022/05/17 04:43:21;;;;;;;;;;;13.00;99.90;;;;;;5060740;28;19929;-72
2022/05/17 04:45:54;;;;;;;;;;;13.00;99.90;;;;;;5062864;28;19937;-73
2022/05/17 04:48:26;;;;;;;;;;;13.10;99.90;;;;;;5064432;28;19935;-72
2022/05/17 04:50:57;;;;;;;;;;;13.10;99.90;;;;;;5062053;28;19932;-72
2022/05/17 04:53:29;;;;;;;;;;;13.20;99.90;;;;;;5058964;28;20103;-72
2022/05/17 04:56:01;;;;;;;;;;;13.30;99.90;;;;;;5057327;28;19936;-72
2022/05/17 04:58:33;;;;;;;;;;;13.40;99.90;;;;;;5064516;28;19962;-72
2022/05/17 05:01:05;;;;;;;;;;;13.40;99.90;;;;;;5059076;28;19932;-72
2022/05/17 05:03:37;;;;;;;;;;;13.40;99.90;;;;;;5067250;28;19929;-72
2022/05/17 05:06:09;;;;;;;;;;;13.50;99.90;;;;;;5059110;28;19928;-72
2022/05/17 05:08:40;;;;;;;;;;;13.50;99.90;;;;;;5060249;28;19935;-72
2022/05/17 05:11:12;;;;;;;;;;;13.50;99.90;;;;;;5066238;28;19935;-74
2022/05/17 05:13:44;;;;;;;;;;;13.50;99.90;;;;;;5063468;28;19924;-72
2022/05/17 05:16:15;;;;;;;;;;;13.60;99.90;;;;;;5061878;28;19925;-72
2022/05/17 05:18:47;;;;;;;;;;;13.60;99.90;;;;;;5066390;28;19939;-72
2022/05/17 05:21:19;;;;;;;;;;;13.60;99.90;;;;;;5058913;28;20312;-72
2022/05/17 05:23:50;;;;;;;;;;;13.60;99.90;;;;;;5063531;28;19929;-72
2022/05/17 05:26:22;;;;;;;;;;;13.70;99.90;;;;;;5060993;28;19932;-72
2022/05/17 05:28:54;;;;;;;;;;;13.70;99.90;;;;;;5054136;28;19929;-73
2022/05/17 05:31:25;;;;;;;;;;;13.80;99.90;;;;;;5061592;28;19925;-73
2022/05/17 05:33:52;;;;;;;;;;;13.80;99.90;;;;;;5066628;28;20427;-72
2022/05/17 05:36:24;;;;;;;;;;;13.90;99.90;;;;;;5069655;28;19930;-73
2022/05/17 05:38:55;;;;;;;;;;;13.90;99.90;;;;;;5063284;28;19929;-73
2022/05/17 05:41:27;;;;;;;;;;;14.00;99.90;;;;;;5060896;28;19936;-73
2022/05/17 05:43:58;;;;;;;;;;;14.10;99.90;;;;;;5064199;28;19951;-73
2022/05/17 05:46:30;;;;;;;;;;;14.10;99.90;;;;;;5067922;28;19928;-73
2022/05/17 05:49:01;;;;;;;;;;;14.20;99.90;;;;;;5069839;28;19925;-74
2022/05/17 05:51:33;;;;;;;;;;;14.20;99.90;;;;;;5071654;28;19929;-72
2022/05/17 05:54:05;;;;;;;;;;;14.30;99.90;;;;;;5065448;28;20325;-72
2022/05/17 05:56:31;;;;;;;;;;;14.50;99.90;;;;;;5071691;28;19930;-72
2022/05/17 05:59:04;;;;;;;;;;;14.60;99.90;;;;;;5071866;28;20344;-72
2022/05/17 06:01:36;;;;;;;;;;;14.70;99.90;;;;;;5061148;28;19932;-74
2022/05/17 06:04:08;;;;;;;;;;;14.80;99.90;;;;;;5060518;28;19928;-73
2022/05/17 06:06:40;;;;;;;;;;;14.90;99.90;;;;;;5058608;28;19925;-73
2022/05/17 06:09:11;;;;;;;;;;;15.00;99.90;;;;;;5065174;28;19934;-73
2022/05/17 06:11:43;;;;;;;;;;;15.10;99.90;;;;;;5073721;28;20414;-73
2022/05/17 06:14:15;;;;;;;;;;;15.20;99.90;;;;;;5066960;28;20405;-73
2022/05/17 06:16:47;;;;;;;;;;;15.20;99.90;;;;;;5062909;28;20491;-74
2022/05/17 06:19:18;;;;;;;;;;;15.30;99.90;;;;;;5062543;28;19932;-73
2022/05/17 06:21:51;;;;;;;;;;;15.40;99.90;;;;;;5067973;28;19928;-74
2022/05/17 06:24:22;;;;;;;;;;;15.40;99.90;;;;;;5056977;28;19928;-73
2022/05/17 06:26:56;;;;;;;;;;;15.50;99.90;;;;;;5068212;28;19928;-73
2022/05/17 06:29:28;;;;;;;;;;;15.50;99.90;;;;;;5099578;28;19928;-74
2022/05/17 06:31:59;;;;;;;;;;;15.50;99.90;;;;;;5049572;28;19939;-74
2022/05/17 06:34:31;;;;;;;;;;;15.60;99.90;;;;;;5072720;28;19935;-74
2022/05/17 06:37:06;;;;;;;;;;;15.70;99.90;;;;;;5080194;28;19939;-73
2022/05/17 06:39:39;;;;;;;;;;;15.80;99.90;;;;;;5068756;28;19933;-74
2022/05/17 06:42:11;;;;;;;;;;;15.80;99.90;;;;;;5067897;28;19925;-73
2022/05/17 06:44:38;;;;;;;;;;;15.90;99.90;;;;;;5071606;28;19932;-73
2022/05/17 06:47:09;;;;;;;;;;;15.90;99.90;;;;;;5065310;28;20342;-74
2022/05/17 06:49:41;;;;;;;;;;;16.00;99.90;;;;;;5070151;28;19924;-74
2022/05/17 06:52:12;;;;;;;;;;;16.10;99.90;;;;;;5070766;28;20412;-73
2022/05/17 06:54:44;;;;;;;;;;;16.10;99.90;;;;;;5053143;28;19931;-74
2022/05/17 06:57:17;;;;;;;;;;;16.20;99.90;;;;;;5041023;28;20296;-73
2022/05/17 06:59:44;;;;;;;;;;;16.30;99.90;;;;;;5077286;28;20568;-74
2022/05/17 07:02:16;;;;;;;;;;;16.30;99.90;;;;;;5093128;28;19928;-74
2022/05/17 07:04:43;;;;;;;;;;;16.40;99.90;;;;;;5070695;28;19946;-73
2022/05/17 07:07:14;;;;;;;;;;;16.50;99.90;;;;;;5068417;28;19932;-73
2022/05/17 07:13:07;;;;;;;;;;;16.60;99.90;;;;;;5062909;28;19925;-73
2022/05/17 07:15:23;;;;;;;;;;;16.70;99.90;;;;;;5056343;28;19928;-73
2022/05/17 07:17:56;;;;;;;;;;;16.80;99.90;;;;;;5082860;28;20587;-73
2022/05/17 07:20:30;;;;;;;;;;;16.90;99.90;;;;;;5052938;28;19925;-73
2022/05/17 07:23:03;;;;;;;;;;;17.00;99.90;;;;;;5048461;28;20333;-73
2022/05/17 07:25:35;;;;;;;;;;;17.10;99.90;;;;;;5062773;28;19925;-73
2022/05/17 07:28:09;;;;;;;;;;;17.10;99.90;;;;;;5072316;28;19970;-74
2022/05/17 07:30:42;;;;;;;;;;;17.20;99.90;;;;;;5066603;28;20301;-74
2022/05/17 07:33:14;;;;;;;;;;;17.30;99.90;;;;;;5060532;28;20416;-73
2022/05/17 07:35:46;;;;;;;;;;;17.30;99.90;;;;;;5068924;28;19929;-74
2022/05/17 07:38:14;;;;;;;;;;;17.40;99.90;;;;;;5053445;28;19947;-73
2022/05/17 07:40:45;;;;;;;;;;;17.50;99.90;;;;;;5066389;28;19932;-73
2022/05/17 07:43:17;;;;;;;;;;;17.70;99.90;;;;;;5082427;28;19935;-72
2022/05/17 07:45:50;;;;;;;;;;;17.80;99.90;;;;;;5059938;28;19929;-73
2022/05/17 07:48:23;;;;;;;;;;;17.90;99.90;;;;;;5058368;28;19928;-74
2022/05/17 07:50:50;;;;;;;;;;;17.90;99.90;;;;;;5061764;28;19925;-73
2022/05/17 07:53:22;;;;;;;;;;;17.90;99.90;;;;;;5067414;28;19924;-73
2022/05/17 07:55:53;;;;;;;;;;;18.00;99.90;;;;;;5068693;28;19928;-73
2022/05/17 07:58:25;;;;;;;;;;;18.10;99.90;;;;;;5054039;28;19928;-73
2022/05/17 08:00:56;;;;;;;;;;;18.20;99.90;;;;;;5060225;28;20316;-74
2022/05/17 08:03:28;;;;;;;;;;;18.30;99.90;;;;;;5063044;28;19928;-72
2022/05/17 08:06:00;;;;;;;;;;;18.40;99.90;;;;;;5057922;28;19924;-73
2022/05/17 08:08:32;;;;;;;;;;;18.50;99.90;;;;;;5069545;28;19924;-73
2022/05/17 08:11:05;;;;;;;;;;;18.60;99.90;;;;;;5067522;28;19928;-73
2022/05/17 08:13:37;;;;;;;;;;;18.70;99.90;;;;;;5061539;28;19932;-73
2022/05/17 08:16:09;;;;;;;;;;;18.90;99.90;;;;;;5059652;28;19936;-74
2022/05/17 08:18:40;;;;;;;;;;;18.90;99.90;;;;;;5063591;28;19924;-74
2022/05/17 08:21:12;;;;;;;;;;;19.00;99.90;;;;;;5070932;28;19929;-74
2022/05/17 08:23:43;;;;;;;;;;;19.10;99.90;;;;;;5062288;28;19929;-74
2022/05/17 08:29:05;;;;;;;;;;;19.30;99.90;;;;;;5064730;28;19970;-73
2022/05/17 08:31:32;;;;;;;;;;;19.40;99.90;;;;;;5060325;28;19964;-74
2022/05/17 08:34:04;;;;;;;;;;;19.40;99.90;;;;;;5063028;28;19928;-73
2022/05/17 08:36:36;;;;;;;;;;;19.40;99.90;;;;;;5057732;28;19931;-73
2022/05/17 08:39:07;;;;;;;;;;;19.50;99.90;;;;;;5065127;28;19924;-74
2022/05/17 08:41:44;;;;;;;;;;;19.60;99.90;;;;;;5059589;28;19940;-74
2022/05/17 08:44:14;;;;;;;;;;;19.70;99.90;;;;;;5052105;28;19924;-73
2022/05/17 08:46:58;;;;;;;;;;;19.70;99.90;;;;;;5070641;28;20023;-74
2022/05/17 08:49:26;;;;;;;;;;;19.80;99.90;;;;;;5075015;28;19928;-73
2022/05/17 08:52:24;;;;;;;;;;;19.90;99.90;;;;;;5066130;28;20420;-74
2022/05/17 08:54:58;;;;;;;;;;;20.00;99.90;;;;;;5095019;28;19925;-74
2022/05/17 08:57:30;;;;;;;;;;;20.00;99.90;;;;;;5052619;28;19932;-73
2022/05/17 09:00:08;;;;;;;;;;;20.00;99.90;;;;;;5051004;28;20018;-74
2022/05/17 09:02:42;;;;;;;;;;;20.10;99.90;;;;;;5066581;28;20003;-74
2022/05/17 09:05:33;;;;;;;;;;;20.00;99.90;;;;;;5058816;28;19925;-74
2022/05/17 09:08:24;;;;;;;;;;;19.90;99.90;;;;;;5052709;28;19924;-73
2022/05/17 09:10:59;;;;;;;;;;;19.80;99.90;;;;;;5055665;28;20410;-74
2022/05/17 09:13:51;;;;;;;;;;;19.80;99.90;;;;;;5057203;28;19931;-73
2022/05/17 09:16:24;;;;;;;;;;;19.90;99.90;;;;;;5070601;28;19924;-74
2022/05/17 09:18:56;;;;;;;;;;;20.10;99.90;;;;;;5033261;28;20273;-74
2022/05/17 09:21:28;;;;;;;;;;;20.20;99.90;;;;;;5070383;28;19928;-73
2022/05/17 09:24:12;;;;;;;;;;;20.40;99.90;;;;;;5062791;28;19931;-73
2022/05/17 09:26:47;;;;;;;;;;;20.60;99.90;;;;;;5067857;28;19931;-74
2022/05/17 09:29:33;;;;;;;;;;;20.70;99.90;;;;;;5076815;28;20330;-74
2022/05/17 09:32:07;;;;;;;;;;;20.70;99.90;;;;;;5066324;28;20023;-74
2022/05/17 09:34:43;;;;;;;;;;;20.80;99.90;;;;;;5070240;28;19931;-73
2022/05/17 09:37:17;;;;;;;;;;;20.90;99.90;;;;;;5064099;28;20392;-74
2022/05/17 09:39:50;;;;;;;;;;;21.00;99.90;;;;;;5047282;28;19932;-74
2022/05/17 09:42:28;;;;;;;;;;;20.90;99.90;;;;;;5058488;28;19928;-73
2022/05/17 09:45:02;;;;;;;;;;;20.90;99.90;;;;;;5062952;28;20309;-73
2022/05/17 09:47:54;;;;;;;;;;;21.10;99.90;;;;;;5055905;28;19928;-73
2022/05/17 09:53:18;;;;;;;;;;;21.10;99.90;;;;;;5067809;28;20298;-74
2022/05/17 09:55:56;;;;;;;;;;;21.30;99.90;;;;;;5057845;28;19931;-73
2022/05/17 09:58:29;;;;;;;;;;;21.40;99.90;;;;;;5078410;28;20027;-73
2022/05/17 10:01:06;;;;;;;;;;;21.20;99.90;;;;;;5071224;28;20388;-74
2022/05/17 10:03:40;;;;;;;;;;;21.10;99.90;;;;;;5058873;28;19936;-74
2022/05/17 10:06:26;;;;;;;;;;;21.00;99.90;;;;;;5053695;28;19925;-74
2022/05/17 10:08:59;;;;;;;;;;;21.00;99.90;;;;;;5069947;28;20400;-74
2022/05/17 10:11:51;;;;;;;;;;;21.00;99.90;;;;;;5069332;28;19931;-73
2022/05/17 10:14:33;;;;;;;;;;;21.20;99.90;;;;;;5066234;28;20381;-74
2022/05/17 10:17:09;;;;;;;;;;;21.40;99.90;;;;;;5060063;28;19948;-74
2022/05/17 10:19:50;;;;;;;;;;;21.50;99.90;;;;;;5068897;28;19924;-73
2022/05/17 10:22:26;;;;;;;;;;;21.60;99.90;;;;;;5052646;28;19924;-73
2022/05/17 10:25:03;;;;;;;;;;;21.40;99.90;;;;;;5061514;28;19928;-74
2022/05/17 10:27:37;;;;;;;;;;;21.40;99.90;;;;;;5065497;28;19925;-74
2022/05/17 10:30:10;;;;;;;;;;;21.60;99.90;;;;;;5061003;28;19924;-74
2022/05/17 10:32:50;;;;;;;;;;;21.70;99.90;;;;;;5067776;28;19928;-73
2022/05/17 10:35:28;;;;;;;;;;;21.70;99.90;;;;;;5074035;28;19928;-73
2022/05/17 10:38:13;;;;;;;;;;;21.80;99.90;;;;;;5062678;28;20388;-74
2022/05/17 10:40:50;;;;;;;;;;;21.90;99.90;;;;;;5060608;28;20015;-74
2022/05/17 10:43:24;;;;;;;;;;;22.10;99.90;;;;;;5065442;28;19932;-74
2022/05/17 10:46:08;;;;;;;;;;;22.30;99.90;;;;;;5099412;28;19948;-74
2022/05/17 10:48:38;;;;;;;;;;;22.30;99.90;;;;;;5067635;28;19932;-74
2022/05/17 10:51:13;;;;;;;;;;;22.40;99.90;;;;;;5072689;28;19931;-74
2022/05/17 10:53:57;;;;;;;;;;;22.50;99.90;;;;;;5069977;28;19932;-74
2022/05/17 10:56:33;;;;;;;;;;;22.70;99.90;;;;;;5061549;28;19928;-74
2022/05/17 10:59:06;;;;;;;;;;;22.90;99.90;;;;;;5068381;28;20416;-74
2022/05/17 11:01:43;;;;;;;;;;;22.90;99.90;;;;;;5067590;28;19924;-75
2022/05/17 11:04:15;;;;;;;;;;;22.90;99.90;;;;;;5085598;28;20015;-74
2022/05/17 11:07:19;;;;;;;;;;;23.10;99.90;;;;;;5066846;28;19929;-73
2022/05/17 11:09:51;;;;;;;;;;;23.10;99.90;;;;;;5053307;28;19925;-73
2022/05/17 11:12:24;;;;;;;;;;;23.30;99.90;;;;;;5072830;28;19924;-73
2022/05/17 11:14:58;;;;;;;;;;;23.30;99.90;;;;;;5065587;28;19925;-73
2022/05/17 11:17:29;;;;;;;;;;;23.30;99.90;;;;;;5064734;28;19928;-73
2022/05/17 11:20:07;;;;;;;;;;;23.40;99.90;;;;;;5060543;28;19948;-74
2022/05/17 11:22:45;;;;;;;;;;;23.40;99.90;;;;;;5066354;28;20393;-74
2022/05/17 11:25:28;;;;;;;;;;;23.60;99.90;;;;;;5074471;28;19925;-73
2022/05/17 11:27:55;;;;;;;;;;;23.50;99.60;;;;;;5063814;28;19939;-74
2022/05/17 11:31:00;;;;;;;;;;;23.60;97.50;;;;;;5039866;28;20412;-73
2022/05/17 11:33:34;;;;;;;;;;;23.50;97.80;;;;;;5053521;28;20246;-74
2022/05/17 11:36:05;;;;;;;;;;;23.40;98.50;;;;;;5061359;28;19928;-73
2022/05/17 11:38:37;;;;;;;;;;;23.40;99.00;;;;;;5090770;28;19931;-73
2022/05/17 11:41:16;;;;;;;;;;;23.20;99.90;;;;;;5049705;28;19929;-74
2022/05/17 11:44:10;;;;;;;;;;;23.20;99.90;;;;;;5066578;28;19936;-74
2022/05/17 11:46:47;;;;;;;;;;;23.10;98.50;;;;;;5055109;28;20034;-74
2022/05/17 11:49:24;;;;;;;;;;;23.10;98.40;;;;;;5060697;28;19936;-74
2022/05/17 11:51:58;;;;;;;;;;;23.20;99.90;;;;;;5080015;28;19928;-73
2022/05/17 11:54:47;;;;;;;;;;;23.30;99.70;;;;;;5072621;28;20385;-74
2022/05/17 11:57:25;;;;;;;;;;;23.30;98.90;;;;;;5067830;28;19925;-74
2022/05/17 12:00:04;;;;;;;;;;;23.50;97.60;;;;;;5061521;28;19930;-74
2022/05/17 12:02:41;;;;;;;;;;;23.60;97.90;;;;;;5062496;28;19935;-73
2022/05/17 12:05:12;;;;;;;;;;;23.70;99.10;;;;;;5067994;28;20015;-74
2022/05/17 12:07:45;;;;;;;;;;;23.80;98.20;;;;;;5069820;28;20031;-74
2022/05/17 12:10:19;;;;;;;;;;;23.70;98.70;;;;;;5056468;28;19936;-74
2022/05/17 12:13:04;;;;;;;;;;;23.70;99.00;;;;;;5066390;28;20356;-73
2022/05/17 12:15:42;;;;;;;;;;;24.00;99.90;;;;;;5070561;28;20023;-73
2022/05/17 12:18:26;;;;;;;;;;;23.90;98.00;;;;;;5058412;28;19925;-74
2022/05/17 12:21:03;;;;;;;;;;;24.10;99.90;;;;;;5067575;28;20301;-73
2022/05/17 12:23:59;;;;;;;;;;;24.00;99.80;;;;;;5062850;28;20091;-74
2022/05/17 12:26:30;;;;;;;;;;;23.90;98.70;;;;;;5053084;28;19929;-73
2022/05/17 12:30:53;;;;;;;;;;;23.90;97.30;;;;;;5079651;28;19924;-74
2022/05/17 12:31:58;;;;;;;;;;;23.90;96.50;;;;;;5065466;28;19924;-74
2022/05/17 12:34:25;;;;;;;;;;;23.90;96.70;;;;;;5050080;28;19933;-73
2022/05/17 12:37:07;;;;;;;;;;;24.00;97.10;;;;;;5068731;28;19924;-73
2022/05/17 12:45:23;;;;;;;;;;;24.20;97.60;;;;;;5067188;28;19928;-74
2022/05/17 12:47:56;;;;;;;;;;;24.20;95.30;;;;;;5068344;28;20357;-74
2022/05/17 12:50:37;;;;;;;;;;;24.30;95.80;;;;;;5065971;28;19967;-74
2022/05/17 12:53:20;;;;;;;;;;;24.50;95.90;;;;;;5049043;28;19935;-73
2022/05/17 12:55:57;;;;;;;;;;;24.60;95.60;;;;;;5073556;28;19974;-73
2022/05/17 12:58:31;;;;;;;;;;;24.70;95.60;;;;;;5069765;28;19928;-74
2022/05/17 13:00:59;;;;;;;;;;;24.80;94.40;;;;;;5067975;28;20026;-73
2022/05/17 13:03:31;;;;;;;;;;;24.80;94.90;;;;;;5065416;28;19936;-73
2022/05/17 13:06:03;;;;;;;;;;;25.00;94.90;;;;;;5059397;28;20795;-74
2022/05/17 13:08:37;;;;;;;;;;;25.10;94.30;;;;;;5065332;28;20316;-74
2022/05/17 13:11:13;;;;;;;;;;;25.10;94.70;;;;;;5073050;28;19935;-74
2022/05/17 13:13:45;;;;;;;;;;;25.10;93.70;;;;;;5065250;28;20401;-74
2022/05/17 13:16:20;;;;;;;;;;;25.20;94.00;;;;;;5066678;28;20424;-74
2022/05/17 13:18:53;;;;;;;;;;;25.30;93.50;;;;;;5069493;28;20327;-73
2022/05/17 13:21:25;;;;;;;;;;;25.40;92.90;;;;;;5069228;28;19924;-74
2022/05/17 13:23:57;;;;;;;;;;;25.30;92.80;;;;;;5075727;28;19925;-74
2022/05/17 13:26:33;;;;;;;;;;;25.40;91.50;;;;;;5074159;28;19935;-73
2022/05/17 13:29:12;;;;;;;;;;;25.30;90.40;;;;;;5066363;28;20406;-74
2022/05/17 13:31:44;;;;;;;;;;;25.20;90.40;;;;;;5051711;28;19931;-73
2022/05/17 13:34:17;;;;;;;;;;;25.30;90.90;;;;;;5069936;28;19939;-74
2022/05/17 13:36:59;;;;;;;;;;;25.30;92.50;;;;;;5069758;28;19932;-73
2022/05/17 13:39:28;;;;;;;;;;;25.20;90.70;;;;;;5069727;28;19932;-74
2022/05/17 13:42:00;;;;;;;;;;;25.40;91.20;;;;;;5081586;28;19951;-74
2022/05/17 13:44:34;;;;;;;;;;;25.60;90.40;;;;;;5067379;28;19928;-73
2022/05/17 13:47:15;;;;;;;;;;;25.70;91.30;;;;;;5073030;28;19928;-74
2022/05/17 13:49:47;;;;;;;;;;;25.60;89.10;;;;;;5072542;28;20031;-74
2022/05/17 13:52:25;;;;;;;;;;;25.60;87.40;;;;;;5069754;28;19935;-73
2022/05/17 13:55:02;;;;;;;;;;;25.40;87.40;;;;;;5099228;28;20503;-74
2022/05/17 13:57:35;;;;;;;;;;;25.40;86.30;;;;;;5048941;28;20385;-73
2022/05/17 14:00:17;;;;;;;;;;;25.40;86.70;;;;;;5070146;28;20143;-73
2022/05/17 14:02:57;;;;;;;;;;;25.50;85.30;;;;;;5069279;28;20379;-74
2022/05/17 14:05:52;;;;;;;;;;;25.40;86.40;;;;;;5065160;28;19974;-73
2022/05/17 14:14:16;;;;;;;;;;;25.70;80.50;;;;;;5084950;28;20709;-73
2022/05/17 14:16:52;;;;;;;;;;;25.80;82.40;;;;;;5071989;28;20410;-74
2022/05/17 14:19:25;;;;;;;;;;;26.00;85.00;;;;;;5072040;28;19930;-73
2022/05/17 14:21:59;;;;;;;;;;;26.40;84.50;;;;;;5069378;28;20407;-73
2022/05/17 14:24:30;;;;;;;;;;;26.60;86.20;;;;;;5065919;28;19935;-73
2022/05/17 14:27:02;;;;;;;;;;;26.80;82.20;;;;;;5070352;28;19932;-74
2022/05/17 14:29:34;;;;;;;;;;;27.10;83.70;;;;;;5070541;28;19932;-74
2022/05/17 14:32:07;;;;;;;;;;;27.10;86.20;;;;;;5073864;28;19931;-73
2022/05/17 14:34:40;;;;;;;;;;;27.10;88.10;;;;;;5069670;28;20285;-73
2022/05/17 14:37:07;;;;;;;;;;;27.00;85.80;;;;;;5072459;28;20015;-73
2022/05/17 14:39:39;;;;;;;;;;;26.60;84.60;;;;;;5072521;28;19961;-73
2022/05/17 14:42:13;;;;;;;;;;;26.30;86.90;;;;;;5070608;28;20022;-73
2022/05/17 14:44:45;;;;;;;;;;;26.10;89.30;;;;;;5064779;28;19928;-73
2022/05/17 14:47:21;;;;;;;;;;;26.20;88.20;;;;;;5074146;28;19929;-74
2022/05/17 14:49:57;;;;;;;;;;;26.40;84.50;;;;;;5075497;28;19925;-74
2022/05/17 14:52:29;;;;;;;;;;;26.60;84.50;;;;;;5066686;28;19925;-74
2022/05/17 14:55:01;;;;;;;;;;;26.90;79.90;;;;;;5066777;28;19930;-74
2022/05/17 14:57:29;;;;;;;;;;;27.10;78.70;;;;;;5055628;28;19932;-74
2022/05/17 14:59:56;;;;;;;;;;;27.40;78.90;;;;;;5073657;28;20117;-74
2022/05/17 15:02:28;;;;;;;;;;;27.60;81.60;;;;;;5066127;28;19935;-73
2022/05/17 15:04:59;;;;;;;;;;;27.40;78.30;;;;;;5070354;28;19971;-75
2022/05/17 15:07:33;;;;;;;;;;;27.50;78.40;;;;;;5071203;28;19975;-74
2022/05/17 15:10:10;;;;;;;;;;;27.60;74.90;;;;;;5068150;28;19958;-74
2022/05/17 15:12:42;;;;;;;;;;;27.60;76.90;;;;;;5070692;28;19933;-74
2022/05/17 15:15:15;;;;;;;;;;;27.80;78.60;;;;;;5065850;28;19931;-74
2022/05/17 15:17:51;;;;;;;;;;;27.90;77.30;;;;;;5069809;28;19924;-74
2022/05/17 15:20:23;;;;;;;;;;;28.10;74.90;;;;;;5069223;28;19924;-75